createdAt,value
2023-03-02T00:01:36.787Z,39.70
2023-03-02T00:04:06.510Z,31.95
2023-03-02T00:06:35.869Z,40.90
2023-03-02T00:09:05.046Z,44.35
2023-03-02T00:11:35.810Z,42.97
2023-03-02T00:14:02.665Z,47.50
2023-03-02T00:16:29.738Z,56.33
2023-03-02T00:18:56.707Z,50.00
2023-03-02T00:21:24.713Z,45.00
2023-03-02T00:23:53.005Z,46.95
2023-03-02T00:26:20.936Z,37.65
2023-03-02T00:28:47.932Z,36.53
2023-03-02T00:31:14.919Z,38.55
2023-03-02T00:33:41.869Z,40.88
2023-03-02T00:36:19.529Z,39.55
2023-03-02T00:38:46.508Z,38.13
2023-03-02T00:41:15.066Z,36.20
2023-03-02T00:43:42.662Z,31.77
2023-03-02T00:46:11.752Z,31.90
2023-03-02T00:48:38.990Z,35.92
2023-03-02T00:51:07.289Z,32.28
2023-03-02T00:53:35.656Z,31.33
2023-03-02T00:56:03.260Z,37.92
2023-03-02T00:58:31.137Z,35.33
2023-03-02T01:00:59.136Z,34.88
2023-03-02T01:03:26.187Z,30.77
2023-03-02T01:05:56.632Z,38.00
2023-03-02T01:08:25.241Z,36.28
2023-03-02T01:10:54.303Z,35.53
2023-03-02T01:13:21.520Z,35.90
2023-03-02T01:15:48.513Z,36.40
2023-03-02T01:18:15.435Z,40.40
2023-03-02T01:20:42.570Z,38.42
2023-03-02T01:23:09.385Z,41.30
2023-03-02T01:25:36.758Z,41.97
2023-03-02T01:28:03.886Z,40.53
2023-03-02T01:30:30.723Z,42.50
2023-03-02T01:32:57.582Z,31.38
2023-03-02T01:35:24.613Z,29.80
2023-03-02T01:37:51.405Z,23.80
2023-03-02T01:40:18.420Z,25.42
2023-03-02T01:42:57.685Z,26.15
2023-03-02T01:46:09.200Z,25.98
2023-03-02T01:48:50.784Z,33.15
2023-03-02T01:51:21.495Z,28.92
2023-03-02T01:53:54.600Z,35.00
2023-03-02T01:56:27.322Z,33.75
2023-03-02T01:59:02.204Z,42.85
2023-03-02T02:01:50.715Z,38.92
2023-03-02T02:04:18.433Z,46.25
2023-03-02T02:06:52.768Z,36.65
2023-03-02T02:09:22.825Z,35.88
2023-03-02T02:11:52.141Z,32.55
2023-03-02T02:14:19.042Z,31.83
2023-03-02T02:16:46.429Z,32.47
2023-03-02T02:19:27.226Z,28.38
2023-03-02T02:21:54.135Z,25.55
2023-03-02T02:24:57.476Z,27.15
2023-03-02T02:27:30.744Z,34.22
2023-03-02T02:29:58.741Z,24.33
2023-03-02T02:32:34.323Z,27.10
2023-03-02T02:35:19.974Z,25.25
2023-03-02T02:37:55.188Z,31.08
2023-03-02T02:40:51.828Z,20.75
2023-03-02T02:43:21.547Z,29.93
2023-03-02T02:45:52.139Z,34.45
2023-03-02T02:48:24.513Z,30.58
2023-03-02T02:51:00.648Z,35.47
2023-03-02T02:54:01.298Z,29.63
2023-03-02T02:56:37.230Z,31.23
2023-03-02T02:59:14.278Z,28.70
2023-03-02T03:01:41.495Z,32.08
2023-03-02T03:04:14.827Z,37.53
2023-03-02T03:06:52.270Z,33.25
2023-03-02T03:09:19.219Z,33.42
2023-03-02T03:11:50.540Z,33.85
2023-03-02T03:14:23.199Z,30.75
2023-03-02T03:16:51.205Z,33.20
2023-03-02T03:19:28.339Z,23.52
2023-03-02T03:21:58.383Z,23.92
2023-03-02T03:24:27.896Z,25.17
2023-03-02T03:26:58.432Z,27.92
2023-03-02T03:29:27.444Z,18.85
2023-03-02T03:31:56.540Z,24.08
2023-03-02T03:34:25.909Z,23.10
2023-03-02T03:36:53.502Z,25.75
2023-03-02T03:39:21.009Z,24.73
2023-03-02T03:41:47.883Z,25.20
2023-03-02T03:44:14.829Z,22.45
2023-03-02T03:46:41.659Z,22.65
2023-03-02T03:49:08.570Z,23.23
2023-03-02T03:51:35.748Z,20.27
2023-03-02T03:54:08.688Z,22.88
2023-03-02T03:56:42.108Z,21.10
2023-03-02T03:59:12.620Z,17.98
2023-03-02T04:01:46.736Z,18.75
2023-03-02T04:04:20.728Z,16.75
2023-03-02T04:06:47.885Z,22.13
2023-03-02T04:09:15.846Z,18.33
2023-03-02T04:11:44.062Z,15.02
2023-03-02T04:14:11.787Z,15.68
2023-03-02T04:16:39.844Z,20.38
2023-03-02T04:19:11.236Z,18.75
2023-03-02T04:21:45.660Z,17.90
2023-03-02T04:24:14.918Z,17.50
2023-03-02T04:26:43.070Z,15.77
2023-03-02T04:29:11.161Z,17.33
2023-03-02T04:31:38.631Z,19.70
2023-03-02T04:34:06.380Z,17.55
2023-03-02T04:36:36.874Z,17.40
2023-03-02T04:39:05.508Z,18.60
2023-03-02T04:41:32.776Z,16.67
2023-03-02T04:43:59.690Z,15.27
2023-03-02T04:46:27.859Z,15.10
2023-03-02T04:48:55.392Z,14.07
2023-03-02T04:51:27.956Z,24.80
2023-03-02T04:53:58.027Z,15.13
2023-03-02T04:56:25.464Z,12.98
2023-03-02T04:58:52.591Z,13.95
2023-03-02T05:01:20.419Z,14.10
2023-03-02T05:03:47.920Z,13.48
2023-03-02T05:06:15.705Z,12.40
2023-03-02T05:08:43.279Z,19.25
2023-03-02T05:11:22.640Z,15.00
2023-03-02T05:13:55.221Z,11.60
2023-03-02T05:16:24.705Z,12.40
2023-03-02T05:18:51.624Z,15.32
2023-03-02T05:21:19.319Z,10.45
2023-03-02T05:23:46.643Z,12.75
2023-03-02T05:26:14.399Z,13.30
2023-03-02T05:28:43.443Z,12.65
2023-03-02T05:31:24.067Z,14.45
2023-03-02T05:33:50.995Z,16.88
2023-03-02T05:36:19.548Z,18.23
2023-03-02T05:38:47.719Z,17.38
2023-03-02T05:41:14.667Z,15.50
2023-03-02T05:43:42.921Z,16.73
2023-03-02T05:46:09.861Z,14.50
2023-03-02T05:48:37.029Z,16.20
2023-03-02T05:51:04.231Z,12.38
2023-03-02T05:53:31.433Z,14.75
2023-03-02T05:55:58.950Z,16.13
2023-03-02T05:58:25.747Z,13.60
2023-03-02T06:00:52.847Z,12.13
2023-03-02T06:03:19.885Z,12.82
2023-03-02T06:05:52.553Z,16.35
2023-03-02T06:08:21.637Z,15.02
2023-03-02T06:10:50.965Z,15.27
2023-03-02T06:13:18.205Z,15.20
2023-03-02T06:15:45.970Z,14.95
2023-03-02T06:18:13.947Z,14.07
2023-03-02T06:20:42.149Z,17.65
2023-03-02T06:23:09.258Z,23.02
2023-03-02T06:25:37.173Z,22.45
2023-03-02T06:28:04.435Z,19.65
2023-03-02T06:30:31.761Z,19.42
2023-03-02T06:33:00.233Z,15.65
2023-03-02T06:35:27.185Z,17.88
2023-03-02T06:37:54.251Z,17.27
2023-03-02T06:40:21.997Z,18.42
2023-03-02T06:42:48.891Z,16.80
2023-03-02T06:45:16.134Z,19.83
2023-03-02T06:47:42.971Z,14.30
2023-03-02T06:50:11.030Z,13.52
2023-03-02T06:52:38.270Z,14.52
2023-03-02T06:55:05.899Z,17.63
2023-03-02T06:57:35.831Z,19.52
2023-03-02T07:00:18.551Z,21.67
2023-03-02T07:02:45.625Z,20.48
2023-03-02T07:05:13.501Z,21.55
2023-03-02T07:07:40.454Z,17.50
2023-03-02T07:10:08.381Z,18.55
2023-03-02T07:12:36.131Z,18.92
2023-03-02T07:15:04.164Z,19.75
2023-03-02T07:17:31.110Z,18.35
2023-03-02T07:19:58.402Z,18.55
2023-03-02T07:22:27.188Z,22.05
2023-03-02T07:24:54.046Z,20.58
2023-03-02T07:27:20.858Z,18.15
2023-03-02T07:29:47.876Z,20.70
2023-03-02T07:32:15.088Z,20.02
2023-03-02T07:34:42.054Z,17.83
2023-03-02T07:37:10.575Z,22.70
2023-03-02T07:39:37.428Z,27.15
2023-03-02T07:42:04.677Z,24.85
2023-03-02T07:44:32.089Z,26.92
2023-03-02T07:46:59.106Z,30.73
2023-03-02T07:49:26.656Z,17.73
2023-03-02T07:51:56.298Z,17.48
2023-03-02T07:54:26.881Z,21.50
2023-03-02T07:56:53.858Z,16.92
2023-03-02T07:59:21.878Z,14.55
2023-03-02T08:01:49.356Z,12.60
2023-03-02T08:04:16.378Z,12.15
2023-03-02T08:06:43.560Z,16.92
2023-03-02T08:09:10.650Z,15.27
2023-03-02T08:11:37.544Z,12.77
2023-03-02T08:14:04.615Z,14.05
2023-03-02T08:16:31.687Z,16.98
2023-03-02T08:18:59.910Z,14.05
2023-03-02T08:21:28.795Z,14.80
2023-03-02T08:23:55.831Z,16.25
2023-03-02T08:26:23.058Z,12.82
2023-03-02T08:28:50.062Z,11.50
2023-03-02T08:31:17.247Z,11.07
2023-03-02T08:33:46.397Z,9.15
2023-03-02T08:36:17.897Z,14.98
2023-03-02T08:38:45.393Z,14.95
2023-03-02T08:41:19.851Z,20.45
2023-03-02T08:43:47.765Z,10.85
2023-03-02T08:46:16.502Z,12.32
2023-03-02T08:48:44.456Z,11.05
2023-03-02T08:51:17.478Z,13.35
2023-03-02T08:54:02.899Z,7.53
2023-03-02T08:56:33.105Z,6.20
2023-03-02T08:59:03.034Z,8.15
2023-03-02T09:01:32.931Z,7.95
2023-03-02T09:04:01.024Z,7.47
2023-03-02T09:06:30.121Z,6.25
2023-03-02T09:08:57.996Z,6.35
2023-03-02T09:11:25.488Z,4.78
2023-03-02T09:13:52.879Z,5.72
2023-03-02T09:16:20.661Z,5.45
2023-03-02T09:18:48.359Z,5.15
2023-03-02T09:21:15.556Z,5.43
2023-03-02T09:23:42.641Z,6.07
2023-03-02T09:26:09.871Z,7.78
2023-03-02T09:28:37.769Z,5.75
2023-03-02T09:31:07.177Z,4.68
2023-03-02T09:33:34.976Z,4.70
2023-03-02T09:36:10.131Z,5.47
2023-03-02T09:38:37.229Z,18.15
2023-03-02T09:41:20.422Z,8.25
2023-03-02T09:44:09.983Z,6.60
2023-03-02T09:46:50.920Z,8.85
2023-03-02T09:49:35.892Z,5.82
2023-03-02T09:52:08.669Z,8.95
2023-03-02T09:54:38.243Z,10.60
2023-03-02T09:57:23.048Z,6.47
2023-03-02T10:00:19.022Z,6.65
2023-03-02T10:02:47.443Z,6.25
2023-03-02T10:05:29.685Z,18.55
2023-03-02T10:08:00.007Z,13.95
2023-03-02T10:10:37.599Z,8.90
2023-03-02T10:13:36.578Z,7.55
2023-03-02T10:16:24.211Z,14.80
2023-03-02T10:19:12.809Z,13.57
2023-03-02T10:21:43.185Z,6.38
2023-03-02T10:24:46.242Z,16.38
2023-03-02T10:27:18.132Z,12.30
2023-03-02T10:29:51.382Z,8.75
2023-03-02T10:32:30.454Z,5.72
2023-03-02T10:35:02.745Z,11.32
2023-03-02T10:37:31.520Z,9.13
2023-03-02T10:39:58.409Z,9.68
2023-03-02T10:42:38.183Z,7.97
2023-03-02T10:45:31.507Z,9.52
2023-03-02T10:48:07.983Z,5.00
2023-03-02T10:50:35.611Z,8.18
2023-03-02T10:53:09.214Z,12.40
2023-03-02T10:55:36.128Z,10.40
2023-03-02T10:58:21.307Z,10.55
2023-03-02T11:01:18.546Z,10.85
2023-03-02T11:03:57.922Z,14.68
2023-03-02T11:06:25.648Z,13.38
2023-03-02T11:09:19.880Z,8.07
2023-03-02T11:11:56.284Z,6.50
2023-03-02T11:14:25.882Z,9.63
2023-03-02T11:16:53.408Z,13.07
2023-03-02T11:19:41.544Z,8.43
2023-03-02T11:22:23.496Z,7.40
2023-03-02T11:24:56.133Z,9.77
2023-03-02T11:27:29.634Z,6.90
2023-03-02T11:30:04.466Z,7.72
2023-03-02T11:33:00.448Z,9.18
2023-03-02T11:35:53.190Z,12.73
2023-03-02T11:38:26.797Z,10.25
2023-03-02T11:41:03.517Z,12.70
2023-03-02T11:43:30.750Z,8.27
2023-03-02T11:46:10.941Z,4.85
2023-03-02T11:48:47.415Z,8.95
2023-03-02T11:51:23.599Z,7.07
2023-03-02T11:54:03.027Z,7.45
2023-03-02T11:56:33.068Z,10.95
2023-03-02T11:59:05.376Z,15.23
2023-03-02T12:01:35.965Z,10.73
2023-03-02T12:04:26.840Z,7.15
2023-03-02T12:06:54.016Z,7.95
2023-03-02T12:09:23.941Z,9.15
2023-03-02T12:12:17.214Z,11.65
2023-03-02T12:14:44.830Z,11.27
2023-03-02T12:17:27.367Z,13.23
2023-03-02T12:20:08.843Z,16.77
2023-03-02T12:22:37.866Z,8.45
2023-03-02T12:25:27.749Z,10.43
2023-03-02T12:27:56.490Z,18.13
2023-03-02T12:30:27.702Z,25.48
2023-03-02T12:33:20.870Z,28.52
2023-03-02T12:35:50.237Z,13.18
2023-03-02T12:38:27.816Z,11.60
2023-03-02T12:41:03.915Z,11.13
2023-03-02T12:43:34.574Z,11.57
2023-03-02T12:46:16.800Z,9.60
2023-03-02T12:48:58.636Z,10.27
2023-03-02T12:51:50.619Z,10.73
2023-03-02T12:54:21.655Z,7.13
2023-03-02T12:56:49.712Z,9.13
2023-03-02T12:59:28.284Z,8.07
2023-03-02T13:02:11.201Z,6.43
2023-03-02T13:04:38.444Z,12.50
2023-03-02T13:07:07.465Z,8.98
2023-03-02T13:09:36.933Z,13.43
2023-03-02T13:12:05.847Z,11.90
2023-03-02T13:14:33.158Z,17.77
2023-03-02T13:17:05.264Z,12.52
2023-03-02T13:19:34.150Z,15.60
2023-03-02T13:22:01.222Z,13.57
2023-03-02T13:24:46.746Z,10.27
2023-03-02T13:27:20.553Z,14.20
2023-03-02T13:29:48.822Z,14.63
2023-03-02T13:32:28.887Z,24.13
2023-03-02T13:34:59.984Z,21.52
2023-03-02T13:37:41.993Z,20.55
2023-03-02T13:40:34.188Z,24.88
2023-03-02T13:43:01.637Z,19.23
2023-03-02T13:45:30.321Z,26.92
2023-03-02T13:48:03.000Z,22.55
2023-03-02T13:50:32.379Z,18.75
2023-03-02T13:53:06.510Z,23.40
2023-03-02T13:55:34.855Z,20.80
2023-03-02T13:58:02.909Z,31.70
2023-03-02T14:00:34.439Z,25.98
2023-03-02T14:03:02.079Z,15.23
2023-03-02T14:05:35.393Z,24.33
2023-03-02T14:08:07.663Z,28.45
2023-03-02T14:10:34.711Z,19.08
2023-03-02T14:13:19.402Z,23.15
2023-03-02T14:15:53.399Z,17.65
2023-03-02T14:18:26.793Z,28.48
2023-03-02T14:20:53.666Z,27.13
2023-03-02T14:23:20.707Z,31.48
2023-03-02T14:25:49.656Z,29.20
2023-03-02T14:28:33.414Z,21.50
2023-03-02T14:31:00.557Z,21.20
2023-03-02T14:33:28.315Z,23.38
2023-03-02T14:36:02.978Z,21.30
2023-03-02T14:38:30.888Z,29.52
2023-03-02T14:40:58.388Z,21.35
2023-03-02T14:43:25.557Z,22.70
2023-03-02T14:45:53.373Z,14.63
2023-03-02T14:48:20.662Z,18.05
2023-03-02T14:50:53.443Z,37.13
2023-03-02T14:53:28.161Z,19.05
2023-03-02T14:55:55.372Z,23.40
2023-03-02T14:58:31.689Z,28.40
2023-03-02T15:01:00.749Z,18.67
2023-03-02T15:03:28.520Z,19.02
2023-03-02T15:06:01.295Z,19.13
2023-03-02T15:08:29.484Z,22.50
2023-03-02T15:10:56.570Z,21.92
2023-03-02T15:13:23.817Z,24.45
2023-03-02T15:15:52.975Z,22.95
2023-03-02T15:18:20.544Z,23.40
2023-03-02T15:20:47.820Z,26.02
2023-03-02T15:23:14.760Z,19.02
2023-03-02T15:25:43.235Z,17.08
2023-03-02T15:28:11.270Z,17.67
2023-03-02T15:30:38.245Z,13.20
2023-03-02T15:33:08.754Z,11.57
2023-03-02T15:35:41.337Z,16.95
2023-03-02T15:38:27.311Z,19.85
2023-03-02T15:40:54.408Z,17.38
2023-03-02T15:43:24.358Z,16.23
2023-03-02T15:45:51.646Z,13.80
2023-03-02T15:48:18.885Z,14.48
2023-03-02T15:50:56.167Z,29.92
2023-03-02T15:53:23.722Z,21.45
2023-03-02T15:55:51.137Z,23.08
2023-03-02T15:58:19.117Z,31.50
2023-03-02T16:00:46.201Z,32.75
2023-03-02T16:03:14.827Z,21.33
2023-03-02T16:05:42.159Z,28.90
2023-03-02T16:08:09.562Z,22.45
2023-03-02T16:10:37.070Z,18.90
2023-03-02T16:13:07.129Z,17.30
2023-03-02T16:15:40.453Z,24.33
2023-03-02T16:18:08.922Z,25.50
2023-03-02T16:20:39.426Z,31.65
2023-03-02T16:23:10.546Z,30.70
2023-03-02T16:25:40.687Z,29.45
2023-03-02T16:28:08.178Z,29.83
2023-03-02T16:30:35.979Z,27.63
2023-03-02T16:33:06.197Z,20.02
2023-03-02T16:35:37.396Z,28.38
2023-03-02T16:38:05.874Z,16.05
2023-03-02T16:40:33.922Z,23.67
2023-03-02T16:43:01.148Z,19.98
2023-03-02T16:45:28.352Z,19.80
2023-03-02T16:47:55.354Z,23.75
2023-03-02T16:50:22.495Z,27.25
2023-03-02T16:52:49.542Z,14.90
2023-03-02T16:55:19.520Z,15.93
2023-03-02T16:57:46.972Z,17.35
2023-03-02T17:00:19.504Z,18.98
2023-03-02T17:02:47.288Z,18.35
2023-03-02T17:05:16.487Z,25.48
2023-03-02T17:07:43.437Z,28.75
2023-03-02T17:10:14.732Z,23.10
2023-03-02T17:12:41.834Z,22.70
2023-03-02T17:15:13.556Z,20.15
2023-03-02T17:17:41.339Z,22.13
2023-03-02T17:20:11.514Z,28.17
2023-03-02T17:22:39.693Z,24.83
2023-03-02T17:25:07.719Z,21.08
2023-03-02T17:27:35.228Z,31.48
2023-03-02T17:30:02.447Z,21.95
2023-03-02T17:32:29.545Z,28.42
2023-03-02T17:34:56.721Z,33.78
2023-03-02T17:37:26.056Z,36.08
2023-03-02T17:39:53.049Z,37.53
2023-03-02T17:42:20.203Z,30.60
2023-03-02T17:44:47.327Z,24.30
2023-03-02T17:47:18.030Z,24.02
2023-03-02T17:49:45.513Z,23.25
2023-03-02T17:52:13.996Z,27.55
2023-03-02T17:54:42.509Z,20.67
2023-03-02T17:57:10.145Z,19.33
2023-03-02T17:59:38.433Z,22.30
2023-03-02T18:02:05.722Z,23.33
2023-03-02T18:04:32.763Z,25.27
2023-03-02T18:07:02.571Z,29.95
2023-03-02T18:09:29.647Z,27.60
2023-03-02T18:11:56.667Z,23.48
2023-03-02T18:14:28.552Z,21.83
2023-03-02T18:16:55.776Z,23.98
2023-03-02T18:19:23.194Z,21.13
2023-03-02T18:21:50.025Z,22.88
2023-03-02T18:24:16.990Z,23.52
2023-03-02T18:26:44.097Z,18.30
2023-03-02T18:29:11.172Z,21.83
2023-03-02T18:31:38.423Z,24.63
2023-03-02T18:34:05.683Z,22.85
2023-03-02T18:36:32.691Z,23.83
2023-03-02T18:38:59.887Z,25.00
2023-03-02T18:41:28.108Z,25.48
2023-03-02T18:43:55.036Z,19.30
2023-03-02T18:46:28.580Z,22.65
2023-03-02T18:48:56.866Z,22.48
2023-03-02T18:51:25.446Z,25.98
2023-03-02T18:53:53.248Z,24.48
2023-03-02T18:56:22.075Z,29.30
2023-03-02T18:58:50.346Z,35.17
2023-03-02T19:01:17.844Z,28.25
2023-03-02T19:03:46.145Z,28.25
2023-03-02T19:06:14.642Z,27.90
2023-03-02T19:08:42.010Z,31.10
2023-03-02T19:11:09.092Z,26.88
2023-03-02T19:13:36.401Z,31.90
2023-03-02T19:16:04.102Z,28.42
2023-03-02T19:18:31.474Z,32.45
2023-03-02T19:20:58.642Z,27.35
2023-03-02T19:23:26.351Z,31.58
2023-03-02T19:25:53.567Z,33.13
2023-03-02T19:28:21.911Z,38.85
2023-03-02T19:30:49.925Z,33.03
2023-03-02T19:33:18.034Z,34.53
2023-03-02T19:35:45.048Z,38.15
2023-03-02T19:38:12.965Z,35.13
2023-03-02T19:40:40.733Z,33.88
2023-03-02T19:43:07.808Z,36.65
2023-03-02T19:45:36.005Z,34.38
2023-03-02T19:48:04.050Z,37.53
2023-03-02T19:50:31.077Z,35.65
2023-03-02T19:52:59.297Z,40.50
2023-03-02T19:55:27.045Z,33.53
2023-03-02T19:57:59.985Z,35.42
2023-03-02T20:00:29.776Z,33.22
2023-03-02T20:02:57.853Z,34.60
2023-03-02T20:05:27.616Z,33.70
2023-03-02T20:07:55.153Z,37.95
2023-03-02T20:10:37.011Z,31.90
2023-03-02T20:13:06.332Z,34.97
2023-03-02T20:15:38.359Z,37.55
2023-03-02T20:18:08.766Z,35.17
2023-03-02T20:20:36.156Z,33.92
2023-03-02T20:23:04.713Z,31.67
2023-03-02T20:25:31.927Z,36.35
2023-03-02T20:27:58.853Z,35.70
2023-03-02T20:30:37.648Z,24.90
2023-03-02T20:33:07.161Z,28.60
2023-03-02T20:35:40.161Z,27.42
2023-03-02T20:38:20.307Z,34.75
2023-03-02T20:40:47.747Z,31.38
2023-03-02T20:43:15.202Z,27.65
2023-03-02T20:45:42.291Z,38.80
2023-03-02T20:48:10.301Z,40.75
2023-03-02T20:50:37.948Z,36.88
2023-03-02T20:53:06.484Z,30.42
2023-03-02T20:55:33.899Z,28.13
2023-03-02T20:58:01.545Z,28.85
2023-03-02T21:00:32.341Z,33.97
2023-03-02T21:02:59.701Z,42.90
2023-03-02T21:05:27.767Z,27.73
2023-03-02T21:07:55.665Z,27.40
2023-03-02T21:10:30.712Z,25.27
2023-03-02T21:12:57.854Z,30.52
2023-03-02T21:15:27.572Z,38.33
2023-03-02T21:17:55.613Z,40.95
2023-03-02T21:20:25.118Z,32.72
2023-03-02T21:22:51.954Z,31.08
2023-03-02T21:25:19.424Z,27.70
2023-03-02T21:27:46.455Z,31.20
2023-03-02T21:30:19.943Z,26.83
2023-03-02T21:32:48.267Z,28.63
2023-03-02T21:35:20.229Z,25.55
2023-03-02T21:37:49.360Z,29.63
2023-03-02T21:40:21.768Z,25.33
2023-03-02T21:42:49.094Z,24.92
2023-03-02T21:45:16.047Z,27.33
2023-03-02T21:47:43.544Z,24.27
2023-03-02T21:50:15.249Z,36.45
2023-03-02T21:52:42.246Z,32.47
2023-03-02T21:55:10.204Z,30.48
2023-03-02T21:57:37.539Z,29.77
2023-03-02T22:00:05.475Z,28.63
2023-03-02T22:02:33.151Z,28.27
2023-03-02T22:05:00.329Z,36.63
2023-03-02T22:07:28.179Z,35.40
2023-03-02T22:09:55.175Z,35.58
2023-03-02T22:12:23.057Z,37.75
2023-03-02T22:14:53.341Z,35.47
2023-03-02T22:17:24.080Z,38.83
2023-03-02T22:19:52.519Z,35.95
2023-03-02T22:22:26.467Z,39.38
2023-03-02T22:24:54.785Z,34.30
2023-03-02T22:27:29.368Z,33.30
2023-03-02T22:29:59.379Z,34.90
2023-03-02T22:32:29.463Z,36.08
2023-03-02T22:35:02.746Z,35.65
2023-03-02T22:37:34.077Z,33.10
2023-03-02T22:40:07.675Z,37.50
2023-03-02T22:42:34.506Z,44.30
2023-03-02T22:45:16.357Z,41.88
2023-03-02T22:47:48.402Z,42.00
2023-03-02T22:50:27.405Z,43.58
2023-03-02T22:52:56.237Z,38.60
2023-03-02T22:55:42.510Z,36.97
2023-03-02T22:58:27.947Z,36.60
2023-03-02T23:00:55.281Z,34.90
2023-03-02T23:03:28.133Z,32.63
2023-03-02T23:05:55.174Z,37.45
2023-03-02T23:08:30.452Z,33.17
2023-03-02T23:10:59.473Z,33.83
2023-03-02T23:13:38.154Z,35.90
2023-03-02T23:16:24.789Z,34.38
2023-03-02T23:18:54.379Z,37.97
2023-03-02T23:21:28.506Z,40.28
2023-03-02T23:23:55.901Z,46.78
2023-03-02T23:26:22.748Z,35.22
2023-03-02T23:28:50.961Z,36.80
2023-03-02T23:31:18.972Z,41.17
2023-03-02T23:33:46.204Z,40.38
2023-03-02T23:36:14.173Z,37.58
2023-03-02T23:38:41.718Z,34.88
2023-03-02T23:41:09.080Z,33.25
2023-03-02T23:43:36.352Z,37.15
2023-03-02T23:46:03.466Z,33.25
2023-03-02T23:48:35.850Z,34.33
2023-03-02T23:51:02.715Z,32.35
2023-03-02T23:53:33.015Z,38.30
2023-03-02T23:56:00.065Z,32.95
2023-03-02T23:58:26.985Z,32.80
